sensor_id;sensor_type;location;lat;lon;timestamp;P1;durP1;ratioP1;P2;durP2;ratioP2
6376;SDS011;3221;48.858;10.128;2022-09-06T00:00:10;3.23;;;2.80;;
6376;SDS011;3221;48.858;10.128;2022-09-06T00:02:39;4.00;;;3.20;;
6376;SDS011;3221;48.858;10.128;2022-09-06T00:05:07;3.93;;;3.03;;
6376;SDS011;3221;48.858;10.128;2022-09-06T00:07:35;3.70;;;3.20;;
6376;SDS011;3221;48.858;10.128;2022-09-06T00:10:02;4.63;;;3.10;;
6376;SDS011;3221;48.858;10.128;2022-09-06T00:12:29;5.03;;;3.03;;
6376;SDS011;3221;48.858;10.128;2022-09-06T00:14:56;3.10;;;2.90;;
6376;SDS011;3221;48.858;10.128;2022-09-06T00:17:23;4.73;;;3.10;;
6376;SDS011;3221;48.858;10.128;2022-09-06T00:19:50;4.30;;;3.40;;
6376;SDS011;3221;48.858;10.128;2022-09-06T00:22:17;3.33;;;2.80;;
6376;SDS011;3221;48.858;10.128;2022-09-06T00:24:44;4.40;;;3.30;;
6376;SDS011;3221;48.858;10.128;2022-09-06T00:27:11;3.43;;;3.13;;
6376;SDS011;3221;48.858;10.128;2022-09-06T00:29:38;4.07;;;3.00;;
6376;SDS011;3221;48.858;10.128;2022-09-06T00:32:05;5.37;;;3.40;;
6376;SDS011;3221;48.858;10.128;2022-09-06T00:34:32;3.67;;;3.30;;
6376;SDS011;3221;48.858;10.128;2022-09-06T00:36:59;3.40;;;3.10;;
6376;SDS011;3221;48.858;10.128;2022-09-06T00:39:26;3.83;;;3.30;;
6376;SDS011;3221;48.858;10.128;2022-09-06T00:41:53;3.47;;;3.10;;
6376;SDS011;3221;48.858;10.128;2022-09-06T00:44:19;3.57;;;3.17;;
6376;SDS011;3221;48.858;10.128;2022-09-06T00:46:46;4.83;;;3.30;;
6376;SDS011;3221;48.858;10.128;2022-09-06T00:49:22;3.57;;;3.03;;
6376;SDS011;3221;48.858;10.128;2022-09-06T00:51:52;3.40;;;3.10;;
6376;SDS011;3221;48.858;10.128;2022-09-06T00:54:24;4.00;;;3.40;;
6376;SDS011;3221;48.858;10.128;2022-09-06T00:56:51;3.43;;;3.13;;
6376;SDS011;3221;48.858;10.128;2022-09-06T00:59:21;3.87;;;3.47;;
6376;SDS011;3221;48.858;10.128;2022-09-06T01:01:50;3.73;;;3.27;;
6376;SDS011;3221;48.858;10.128;2022-09-06T01:04:17;4.73;;;3.07;;
6376;SDS011;3221;48.858;10.128;2022-09-06T01:15:32;3.53;;;3.23;;
6376;SDS011;3221;48.858;10.128;2022-09-06T01:18:40;3.30;;;3.00;;
6376;SDS011;3221;48.858;10.128;2022-09-06T01:21:19;4.23;;;3.10;;
6376;SDS011;3221;48.858;10.128;2022-09-06T01:27:09;3.93;;;3.30;;
6376;SDS011;3221;48.858;10.128;2022-09-06T01:29:42;3.03;;;2.83;;
6376;SDS011;3221;48.858;10.128;2022-09-06T01:35:28;2.90;;;2.70;;
6376;SDS011;3221;48.858;10.128;2022-09-06T01:38:03;3.80;;;3.20;;
6376;SDS011;3221;48.858;10.128;2022-09-06T01:40:30;5.67;;;3.70;;
6376;SDS011;3221;48.858;10.128;2022-09-06T01:43:02;3.27;;;2.90;;
6376;SDS011;3221;48.858;10.128;2022-09-06T01:45:39;4.27;;;3.20;;
6376;SDS011;3221;48.858;10.128;2022-09-06T01:48:49;3.93;;;3.10;;
6376;SDS011;3221;48.858;10.128;2022-09-06T01:54:01;4.40;;;3.40;;
6376;SDS011;3221;48.858;10.128;2022-09-06T01:56:58;4.63;;;3.30;;
6376;SDS011;3221;48.858;10.128;2022-09-06T01:59:49;4.60;;;3.50;;
6376;SDS011;3221;48.858;10.128;2022-09-06T02:07:25;3.70;;;3.40;;
6376;SDS011;3221;48.858;10.128;2022-09-06T02:09:58;3.53;;;3.23;;
6376;SDS011;3221;48.858;10.128;2022-09-06T02:12:31;3.50;;;3.30;;
6376;SDS011;3221;48.858;10.128;2022-09-06T02:15:02;3.53;;;3.23;;
6376;SDS011;3221;48.858;10.128;2022-09-06T02:17:36;3.70;;;3.40;;
6376;SDS011;3221;48.858;10.128;2022-09-06T02:22:38;4.13;;;3.43;;
6376;SDS011;3221;48.858;10.128;2022-09-06T02:25:10;5.77;;;3.40;;
6376;SDS011;3221;48.858;10.128;2022-09-06T02:27:44;3.70;;;3.23;;
6376;SDS011;3221;48.858;10.128;2022-09-06T02:30:11;3.50;;;3.20;;
6376;SDS011;3221;48.858;10.128;2022-09-06T02:32:39;4.50;;;3.53;;
6376;SDS011;3221;48.858;10.128;2022-09-06T02:35:18;3.90;;;3.40;;
6376;SDS011;3221;48.858;10.128;2022-09-06T02:37:45;4.43;;;3.10;;
6376;SDS011;3221;48.858;10.128;2022-09-06T02:40:12;4.27;;;3.40;;
6376;SDS011;3221;48.858;10.128;2022-09-06T02:42:39;12.93;;;3.33;;
6376;SDS011;3221;48.858;10.128;2022-09-06T02:45:07;3.80;;;3.27;;
6376;SDS011;3221;48.858;10.128;2022-09-06T02:47:34;3.80;;;3.47;;
6376;SDS011;3221;48.858;10.128;2022-09-06T02:50:01;4.63;;;3.67;;
6376;SDS011;3221;48.858;10.128;2022-09-06T02:52:28;3.80;;;3.40;;
6376;SDS011;3221;48.858;10.128;2022-09-06T02:54:55;4.73;;;4.20;;
6376;SDS011;3221;48.858;10.128;2022-09-06T02:57:22;5.13;;;4.70;;
6376;SDS011;3221;48.858;10.128;2022-09-06T02:59:49;4.53;;;4.13;;
6376;SDS011;3221;48.858;10.128;2022-09-06T03:02:17;4.47;;;4.07;;
6376;SDS011;3221;48.858;10.128;2022-09-06T03:04:44;8.70;;;4.43;;
6376;SDS011;3221;48.858;10.128;2022-09-06T03:07:11;4.87;;;4.30;;
6376;SDS011;3221;48.858;10.128;2022-09-06T03:09:38;4.53;;;4.10;;
6376;SDS011;3221;48.858;10.128;2022-09-06T03:12:06;5.03;;;4.20;;
6376;SDS011;3221;48.858;10.128;2022-09-06T03:14:32;5.10;;;4.60;;
6376;SDS011;3221;48.858;10.128;2022-09-06T03:17:01;4.60;;;4.10;;
6376;SDS011;3221;48.858;10.128;2022-09-06T03:19:29;4.90;;;3.90;;
6376;SDS011;3221;48.858;10.128;2022-09-06T03:21:56;7.87;;;4.40;;
6376;SDS011;3221;48.858;10.128;2022-09-06T03:24:23;6.43;;;4.50;;
6376;SDS011;3221;48.858;10.128;2022-09-06T03:26:50;4.70;;;4.30;;
6376;SDS011;3221;48.858;10.128;2022-09-06T03:29:17;6.07;;;4.37;;
6376;SDS011;3221;48.858;10.128;2022-09-06T03:31:44;4.73;;;4.20;;
6376;SDS011;3221;48.858;10.128;2022-09-06T03:34:10;5.17;;;4.30;;
6376;SDS011;3221;48.858;10.128;2022-09-06T03:36:37;5.47;;;4.27;;
6376;SDS011;3221;48.858;10.128;2022-09-06T03:39:04;4.90;;;3.90;;
6376;SDS011;3221;48.858;10.128;2022-09-06T03:41:32;4.57;;;4.00;;
6376;SDS011;3221;48.858;10.128;2022-09-06T03:43:59;5.33;;;4.10;;
6376;SDS011;3221;48.858;10.128;2022-09-06T03:46:26;5.67;;;4.80;;
6376;SDS011;3221;48.858;10.128;2022-09-06T03:48:56;5.63;;;4.67;;
6376;SDS011;3221;48.858;10.128;2022-09-06T03:51:24;5.47;;;4.57;;
6376;SDS011;3221;48.858;10.128;2022-09-06T03:53:51;7.13;;;4.97;;
6376;SDS011;3221;48.858;10.128;2022-09-06T03:56:18;5.43;;;4.93;;
6376;SDS011;3221;48.858;10.128;2022-09-06T03:58:45;6.77;;;4.70;;
6376;SDS011;3221;48.858;10.128;2022-09-06T04:01:12;5.43;;;4.70;;
6376;SDS011;3221;48.858;10.128;2022-09-06T04:03:39;5.33;;;4.83;;
6376;SDS011;3221;48.858;10.128;2022-09-06T04:06:06;5.47;;;4.70;;
6376;SDS011;3221;48.858;10.128;2022-09-06T04:08:34;5.03;;;4.50;;
6376;SDS011;3221;48.858;10.128;2022-09-06T04:11:02;5.40;;;4.40;;
6376;SDS011;3221;48.858;10.128;2022-09-06T04:13:31;5.67;;;4.77;;
6376;SDS011;3221;48.858;10.128;2022-09-06T04:16:01;4.60;;;4.10;;
6376;SDS011;3221;48.858;10.128;2022-09-06T04:18:41;5.63;;;4.57;;
6376;SDS011;3221;48.858;10.128;2022-09-06T04:21:09;5.30;;;4.80;;
6376;SDS011;3221;48.858;10.128;2022-09-06T04:23:35;5.17;;;4.30;;
6376;SDS011;3221;48.858;10.128;2022-09-06T04:26:05;6.53;;;4.63;;
6376;SDS011;3221;48.858;10.128;2022-09-06T04:28:32;7.77;;;4.50;;
6376;SDS011;3221;48.858;10.128;2022-09-06T04:30:59;5.30;;;4.47;;
6376;SDS011;3221;48.858;10.128;2022-09-06T04:33:31;5.20;;;4.13;;
6376;SDS011;3221;48.858;10.128;2022-09-06T04:35:59;5.53;;;4.50;;
6376;SDS011;3221;48.858;10.128;2022-09-06T04:38:29;7.67;;;4.80;;
6376;SDS011;3221;48.858;10.128;2022-09-06T04:41:00;4.70;;;4.20;;
6376;SDS011;3221;48.858;10.128;2022-09-06T04:43:27;5.27;;;3.93;;
6376;SDS011;3221;48.858;10.128;2022-09-06T04:45:55;4.40;;;4.00;;
6376;SDS011;3221;48.858;10.128;2022-09-06T04:48:22;4.60;;;4.10;;
6376;SDS011;3221;48.858;10.128;2022-09-06T04:50:49;4.43;;;4.03;;
6376;SDS011;3221;48.858;10.128;2022-09-06T04:53:16;4.73;;;4.03;;
6376;SDS011;3221;48.858;10.128;2022-09-06T04:55:43;4.73;;;4.30;;
6376;SDS011;3221;48.858;10.128;2022-09-06T04:58:09;4.70;;;3.90;;
6376;SDS011;3221;48.858;10.128;2022-09-06T05:00:36;4.30;;;3.90;;
6376;SDS011;3221;48.858;10.128;2022-09-06T05:03:04;5.13;;;3.80;;
6376;SDS011;3221;48.858;10.128;2022-09-06T05:05:31;4.90;;;3.90;;
6376;SDS011;3221;48.858;10.128;2022-09-06T05:07:58;4.87;;;4.03;;
6376;SDS011;3221;48.858;10.128;2022-09-06T05:10:24;4.30;;;3.60;;
6376;SDS011;3221;48.858;10.128;2022-09-06T05:12:52;4.63;;;3.80;;
6376;SDS011;3221;48.858;10.128;2022-09-06T05:15:20;4.57;;;3.50;;
6376;SDS011;3221;48.858;10.128;2022-09-06T05:17:48;4.33;;;3.93;;
6376;SDS011;3221;48.858;10.128;2022-09-06T05:20:15;4.80;;;3.60;;
6376;SDS011;3221;48.858;10.128;2022-09-06T05:22:42;4.30;;;3.90;;
6376;SDS011;3221;48.858;10.128;2022-09-06T05:25:20;4.60;;;3.50;;
6376;SDS011;3221;48.858;10.128;2022-09-06T05:27:47;5.07;;;3.67;;
6376;SDS011;3221;48.858;10.128;2022-09-06T05:30:14;4.40;;;3.83;;
6376;SDS011;3221;48.858;10.128;2022-09-06T05:32:43;3.90;;;3.50;;
6376;SDS011;3221;48.858;10.128;2022-09-06T05:35:10;6.17;;;4.40;;
6376;SDS011;3221;48.858;10.128;2022-09-06T05:37:37;5.50;;;3.97;;
6376;SDS011;3221;48.858;10.128;2022-09-06T05:43:07;14.40;;;4.17;;
6376;SDS011;3221;48.858;10.128;2022-09-06T05:45:34;12.30;;;4.07;;
6376;SDS011;3221;48.858;10.128;2022-09-06T05:48:01;4.70;;;3.53;;
6376;SDS011;3221;48.858;10.128;2022-09-06T05:50:28;4.30;;;3.57;;
6376;SDS011;3221;48.858;10.128;2022-09-06T05:52:55;6.27;;;3.87;;
6376;SDS011;3221;48.858;10.128;2022-09-06T05:55:22;4.27;;;3.87;;
6376;SDS011;3221;48.858;10.128;2022-09-06T05:57:49;5.03;;;4.40;;
6376;SDS011;3221;48.858;10.128;2022-09-06T06:00:16;6.60;;;3.83;;
6376;SDS011;3221;48.858;10.128;2022-09-06T06:02:45;9.67;;;4.00;;
6376;SDS011;3221;48.858;10.128;2022-09-06T06:05:13;7.00;;;4.50;;
6376;SDS011;3221;48.858;10.128;2022-09-06T06:07:40;7.47;;;4.50;;
6376;SDS011;3221;48.858;10.128;2022-09-06T06:10:08;7.20;;;4.70;;
6376;SDS011;3221;48.858;10.128;2022-09-06T06:12:35;5.00;;;3.93;;
6376;SDS011;3221;48.858;10.128;2022-09-06T06:15:02;6.33;;;3.70;;
6376;SDS011;3221;48.858;10.128;2022-09-06T06:17:31;5.23;;;3.30;;
6376;SDS011;3221;48.858;10.128;2022-09-06T06:19:58;6.17;;;3.77;;
6376;SDS011;3221;48.858;10.128;2022-09-06T06:22:24;3.93;;;3.50;;
6376;SDS011;3221;48.858;10.128;2022-09-06T06:24:51;5.23;;;3.60;;
6376;SDS011;3221;48.858;10.128;2022-09-06T06:27:18;4.10;;;3.70;;
6376;SDS011;3221;48.858;10.128;2022-09-06T06:29:45;3.73;;;3.00;;
6376;SDS011;3221;48.858;10.128;2022-09-06T06:32:12;3.40;;;3.10;;
6376;SDS011;3221;48.858;10.128;2022-09-06T06:34:39;5.83;;;3.20;;
6376;SDS011;3221;48.858;10.128;2022-09-06T06:37:06;3.40;;;2.67;;
6376;SDS011;3221;48.858;10.128;2022-09-06T06:39:33;3.17;;;2.60;;
6376;SDS011;3221;48.858;10.128;2022-09-06T06:42:00;2.80;;;2.50;;
6376;SDS011;3221;48.858;10.128;2022-09-06T06:44:40;3.80;;;2.90;;
6376;SDS011;3221;48.858;10.128;2022-09-06T06:47:07;3.43;;;3.07;;
6376;SDS011;3221;48.858;10.128;2022-09-06T06:49:34;4.90;;;3.90;;
6376;SDS011;3221;48.858;10.128;2022-09-06T06:52:01;4.97;;;3.80;;
6376;SDS011;3221;48.858;10.128;2022-09-06T06:54:28;5.50;;;3.70;;
6376;SDS011;3221;48.858;10.128;2022-09-06T06:56:55;4.00;;;3.70;;
6376;SDS011;3221;48.858;10.128;2022-09-06T06:59:21;4.63;;;4.20;;
6376;SDS011;3221;48.858;10.128;2022-09-06T07:01:48;5.00;;;4.17;;
6376;SDS011;3221;48.858;10.128;2022-09-06T07:04:16;5.27;;;3.93;;
6376;SDS011;3221;48.858;10.128;2022-09-06T07:09:40;4.20;;;3.80;;
6376;SDS011;3221;48.858;10.128;2022-09-06T07:12:27;3.93;;;3.50;;
6376;SDS011;3221;48.858;10.128;2022-09-06T07:14:54;5.57;;;3.70;;
6376;SDS011;3221;48.858;10.128;2022-09-06T07:17:20;4.77;;;3.77;;
6376;SDS011;3221;48.858;10.128;2022-09-06T07:19:47;4.10;;;3.57;;
6376;SDS011;3221;48.858;10.128;2022-09-06T07:22:34;3.90;;;3.60;;
6376;SDS011;3221;48.858;10.128;2022-09-06T07:25:05;4.60;;;3.40;;
6376;SDS011;3221;48.858;10.128;2022-09-06T07:27:33;4.07;;;3.30;;
6376;SDS011;3221;48.858;10.128;2022-09-06T07:30:16;5.33;;;3.43;;
6376;SDS011;3221;48.858;10.128;2022-09-06T07:32:45;3.63;;;3.30;;
6376;SDS011;3221;48.858;10.128;2022-09-06T07:35:12;3.33;;;3.03;;
6376;SDS011;3221;48.858;10.128;2022-09-06T07:37:39;3.80;;;3.27;;
6376;SDS011;3221;48.858;10.128;2022-09-06T07:40:06;3.63;;;2.90;;
6376;SDS011;3221;48.858;10.128;2022-09-06T07:42:34;4.47;;;3.03;;
6376;SDS011;3221;48.858;10.128;2022-09-06T07:45:02;5.40;;;3.43;;
6376;SDS011;3221;48.858;10.128;2022-09-06T07:47:30;3.87;;;3.30;;
6376;SDS011;3221;48.858;10.128;2022-09-06T07:50:17;3.30;;;3.00;;
6376;SDS011;3221;48.858;10.128;2022-09-06T07:53:05;3.67;;;3.13;;
6376;SDS011;3221;48.858;10.128;2022-09-06T07:55:38;3.80;;;3.40;;
6376;SDS011;3221;48.858;10.128;2022-09-06T07:58:05;3.53;;;2.97;;
6376;SDS011;3221;48.858;10.128;2022-09-06T08:00:31;3.80;;;3.33;;
6376;SDS011;3221;48.858;10.128;2022-09-06T08:02:58;3.37;;;3.07;;
6376;SDS011;3221;48.858;10.128;2022-09-06T08:05:25;4.40;;;3.10;;
6376;SDS011;3221;48.858;10.128;2022-09-06T08:08:12;5.23;;;3.83;;
6376;SDS011;3221;48.858;10.128;2022-09-06T08:11:00;3.60;;;3.30;;
6376;SDS011;3221;48.858;10.128;2022-09-06T08:13:27;4.20;;;3.67;;
6376;SDS011;3221;48.858;10.128;2022-09-06T08:15:57;6.13;;;3.83;;
6376;SDS011;3221;48.858;10.128;2022-09-06T08:18:29;5.10;;;4.00;;
6376;SDS011;3221;48.858;10.128;2022-09-06T08:21:04;4.50;;;3.90;;
6376;SDS011;3221;48.858;10.128;2022-09-06T08:23:38;4.77;;;3.73;;
6376;SDS011;3221;48.858;10.128;2022-09-06T08:26:07;6.17;;;3.80;;
6376;SDS011;3221;48.858;10.128;2022-09-06T08:28:34;5.17;;;4.47;;
6376;SDS011;3221;48.858;10.128;2022-09-06T08:31:05;4.87;;;4.37;;
6376;SDS011;3221;48.858;10.128;2022-09-06T08:33:33;5.80;;;4.10;;
6376;SDS011;3221;48.858;10.128;2022-09-06T08:36:01;5.57;;;4.30;;
6376;SDS011;3221;48.858;10.128;2022-09-06T08:38:29;7.70;;;4.33;;
6376;SDS011;3221;48.858;10.128;2022-09-06T08:43:50;6.33;;;4.53;;
6376;SDS011;3221;48.858;10.128;2022-09-06T08:46:54;6.43;;;4.40;;
6376;SDS011;3221;48.858;10.128;2022-09-06T08:49:26;4.97;;;4.30;;
6376;SDS011;3221;48.858;10.128;2022-09-06T08:55:00;9.10;;;5.00;;
6376;SDS011;3221;48.858;10.128;2022-09-06T09:00:28;5.57;;;4.93;;
6376;SDS011;3221;48.858;10.128;2022-09-06T09:03:08;5.73;;;5.13;;
6376;SDS011;3221;48.858;10.128;2022-09-06T09:05:51;6.57;;;4.63;;
6376;SDS011;3221;48.858;10.128;2022-09-06T09:08:23;6.60;;;4.63;;
6376;SDS011;3221;48.858;10.128;2022-09-06T09:11:18;6.27;;;5.00;;
6376;SDS011;3221;48.858;10.128;2022-09-06T09:16:29;5.93;;;4.47;;
6376;SDS011;3221;48.858;10.128;2022-09-06T09:18:57;7.20;;;4.90;;
6376;SDS011;3221;48.858;10.128;2022-09-06T09:21:33;5.23;;;4.73;;
6376;SDS011;3221;48.858;10.128;2022-09-06T09:24:03;6.20;;;4.77;;
6376;SDS011;3221;48.858;10.128;2022-09-06T09:26:34;6.27;;;4.57;;
6376;SDS011;3221;48.858;10.128;2022-09-06T09:29:15;5.13;;;4.40;;
6376;SDS011;3221;48.858;10.128;2022-09-06T09:31:46;6.00;;;5.10;;
6376;SDS011;3221;48.858;10.128;2022-09-06T09:34:31;5.83;;;4.77;;
6376;SDS011;3221;48.858;10.128;2022-09-06T09:37:16;8.03;;;5.10;;
6376;SDS011;3221;48.858;10.128;2022-09-06T09:40:03;5.47;;;4.47;;
6376;SDS011;3221;48.858;10.128;2022-09-06T09:42:35;6.50;;;4.90;;
6376;SDS011;3221;48.858;10.128;2022-09-06T09:45:04;5.93;;;4.80;;
6376;SDS011;3221;48.858;10.128;2022-09-06T09:47:50;5.47;;;4.80;;
6376;SDS011;3221;48.858;10.128;2022-09-06T09:50:25;5.73;;;5.03;;
6376;SDS011;3221;48.858;10.128;2022-09-06T09:53:10;7.03;;;5.17;;
6376;SDS011;3221;48.858;10.128;2022-09-06T09:55:39;6.03;;;4.70;;
6376;SDS011;3221;48.858;10.128;2022-09-06T09:58:15;6.77;;;4.73;;
6376;SDS011;3221;48.858;10.128;2022-09-06T10:01:14;5.87;;;4.73;;
6376;SDS011;3221;48.858;10.128;2022-09-06T10:03:45;5.80;;;4.40;;
6376;SDS011;3221;48.858;10.128;2022-09-06T10:06:33;17.80;;;5.13;;
6376;SDS011;3221;48.858;10.128;2022-09-06T10:09:21;11.60;;;4.80;;
6376;SDS011;3221;48.858;10.128;2022-09-06T10:11:57;10.43;;;4.60;;
6376;SDS011;3221;48.858;10.128;2022-09-06T10:14:29;8.53;;;4.60;;
6376;SDS011;3221;48.858;10.128;2022-09-06T10:16:58;6.80;;;4.80;;
6376;SDS011;3221;48.858;10.128;2022-09-06T10:19:36;5.77;;;4.43;;
6376;SDS011;3221;48.858;10.128;2022-09-06T10:22:28;9.03;;;4.63;;
6376;SDS011;3221;48.858;10.128;2022-09-06T10:27:58;8.37;;;4.77;;
6376;SDS011;3221;48.858;10.128;2022-09-06T10:30:54;5.67;;;4.90;;
6376;SDS011;3221;48.858;10.128;2022-09-06T10:36:14;7.23;;;4.87;;
6376;SDS011;3221;48.858;10.128;2022-09-06T10:38:56;6.90;;;4.83;;
6376;SDS011;3221;48.858;10.128;2022-09-06T10:41:44;5.37;;;4.87;;
6376;SDS011;3221;48.858;10.128;2022-09-06T10:46:38;6.93;;;4.60;;
6376;SDS011;3221;48.858;10.128;2022-09-06T10:49:08;7.00;;;4.73;;
6376;SDS011;3221;48.858;10.128;2022-09-06T10:51:42;5.80;;;4.57;;
6376;SDS011;3221;48.858;10.128;2022-09-06T10:54:19;6.57;;;4.63;;
6376;SDS011;3221;48.858;10.128;2022-09-06T10:57:01;6.77;;;4.37;;
6376;SDS011;3221;48.858;10.128;2022-09-06T11:00:03;8.13;;;4.90;;
6376;SDS011;3221;48.858;10.128;2022-09-06T11:02:53;8.43;;;4.90;;
6376;SDS011;3221;48.858;10.128;2022-09-06T11:05:52;5.60;;;4.70;;
6376;SDS011;3221;48.858;10.128;2022-09-06T11:11:44;9.07;;;4.13;;
6376;SDS011;3221;48.858;10.128;2022-09-06T11:14:24;7.47;;;3.80;;
6376;SDS011;3221;48.858;10.128;2022-09-06T11:16:56;9.87;;;3.90;;
6376;SDS011;3221;48.858;10.128;2022-09-06T11:26:06;7.57;;;4.17;;
6376;SDS011;3221;48.858;10.128;2022-09-06T11:28:22;9.07;;;4.03;;
6376;SDS011;3221;48.858;10.128;2022-09-06T11:31:00;8.83;;;4.00;;
6376;SDS011;3221;48.858;10.128;2022-09-06T11:33:30;9.83;;;4.00;;
6376;SDS011;3221;48.858;10.128;2022-09-06T11:36:18;6.13;;;3.50;;
6376;SDS011;3221;48.858;10.128;2022-09-06T11:38:59;6.80;;;4.00;;
6376;SDS011;3221;48.858;10.128;2022-09-06T11:41:33;6.50;;;3.80;;
6376;SDS011;3221;48.858;10.128;2022-09-06T11:44:04;7.27;;;3.63;;
6376;SDS011;3221;48.858;10.128;2022-09-06T11:51:54;7.00;;;3.77;;
6376;SDS011;3221;48.858;10.128;2022-09-06T11:54:25;5.97;;;3.90;;
6376;SDS011;3221;48.858;10.128;2022-09-06T11:57:13;7.27;;;3.87;;
6376;SDS011;3221;48.858;10.128;2022-09-06T12:23:46;8.65;;;3.85;;
6376;SDS011;3221;48.858;10.128;2022-09-06T12:27:16;5.05;;;3.63;;
6376;SDS011;3221;48.858;10.128;2022-09-06T12:33:08;6.73;;;3.70;;
6376;SDS011;3221;48.858;10.128;2022-09-06T12:35:49;6.13;;;3.27;;
6376;SDS011;3221;48.858;10.128;2022-09-06T12:38:25;8.93;;;4.13;;
6376;SDS011;3221;48.858;10.128;2022-09-06T12:40:52;7.03;;;3.60;;
6376;SDS011;3221;48.858;10.128;2022-09-06T12:43:23;6.83;;;3.60;;
6376;SDS011;3221;48.858;10.128;2022-09-06T12:45:51;6.35;;;3.75;;
6376;SDS011;3221;48.858;10.128;2022-09-06T12:48:25;5.60;;;3.50;;
6376;SDS011;3221;48.858;10.128;2022-09-06T12:53:38;7.18;;;3.38;;
6376;SDS011;3221;48.858;10.128;2022-09-06T12:56:07;5.63;;;3.55;;
6376;SDS011;3221;48.858;10.128;2022-09-06T12:58:38;7.40;;;3.35;;
6376;SDS011;3221;48.858;10.128;2022-09-06T13:01:07;6.88;;;3.20;;
6376;SDS011;3221;48.858;10.128;2022-09-06T13:03:55;7.95;;;3.10;;
6376;SDS011;3221;48.858;10.128;2022-09-06T13:06:32;5.80;;;3.58;;
6376;SDS011;3221;48.858;10.128;2022-09-06T13:09:03;6.43;;;3.45;;
6376;SDS011;3221;48.858;10.128;2022-09-06T13:11:37;4.97;;;3.30;;
6376;SDS011;3221;48.858;10.128;2022-09-06T13:14:10;3.80;;;3.17;;
6376;SDS011;3221;48.858;10.128;2022-09-06T13:16:46;9.40;;;3.47;;
6376;SDS011;3221;48.858;10.128;2022-09-06T13:19:17;9.07;;;3.72;;
6376;SDS011;3221;48.858;10.128;2022-09-06T13:21:51;5.47;;;3.15;;
6376;SDS011;3221;48.858;10.128;2022-09-06T13:24:22;6.45;;;3.30;;
6376;SDS011;3221;48.858;10.128;2022-09-06T13:26:50;5.95;;;3.40;;
6376;SDS011;3221;48.858;10.128;2022-09-06T13:31:56;7.20;;;3.30;;
6376;SDS011;3221;48.858;10.128;2022-09-06T13:37:14;7.22;;;3.60;;
6376;SDS011;3221;48.858;10.128;2022-09-06T13:39:40;4.55;;;3.53;;
6376;SDS011;3221;48.858;10.128;2022-09-06T13:45:14;4.78;;;3.13;;
6376;SDS011;3221;48.858;10.128;2022-09-06T13:47:48;5.60;;;3.50;;
6376;SDS011;3221;48.858;10.128;2022-09-06T13:50:16;6.88;;;3.95;;
6376;SDS011;3221;48.858;10.128;2022-09-06T13:52:42;6.30;;;3.33;;
6376;SDS011;3221;48.858;10.128;2022-09-06T13:55:12;5.07;;;3.70;;
6376;SDS011;3221;48.858;10.128;2022-09-06T13:57:42;6.50;;;3.28;;
6376;SDS011;3221;48.858;10.128;2022-09-06T14:00:09;6.45;;;3.40;;
6376;SDS011;3221;48.858;10.128;2022-09-06T14:02:39;5.38;;;3.30;;
6376;SDS011;3221;48.858;10.128;2022-09-06T14:05:07;6.30;;;3.47;;
6376;SDS011;3221;48.858;10.128;2022-09-06T14:07:34;4.65;;;3.53;;
6376;SDS011;3221;48.858;10.128;2022-09-06T14:10:01;6.07;;;3.65;;
6376;SDS011;3221;48.858;10.128;2022-09-06T14:12:28;5.88;;;3.45;;
6376;SDS011;3221;48.858;10.128;2022-09-06T14:14:55;6.40;;;3.30;;
6376;SDS011;3221;48.858;10.128;2022-09-06T14:17:22;5.07;;;2.95;;
6376;SDS011;3221;48.858;10.128;2022-09-06T14:19:49;4.45;;;3.00;;
6376;SDS011;3221;48.858;10.128;2022-09-06T14:22:16;4.15;;;3.30;;
6376;SDS011;3221;48.858;10.128;2022-09-06T14:24:43;7.60;;;3.50;;
6376;SDS011;3221;48.858;10.128;2022-09-06T14:27:10;3.95;;;3.15;;
6376;SDS011;3221;48.858;10.128;2022-09-06T14:29:37;5.25;;;3.20;;
6376;SDS011;3221;48.858;10.128;2022-09-06T14:32:04;5.60;;;3.20;;
6376;SDS011;3221;48.858;10.128;2022-09-06T14:34:32;8.93;;;3.20;;
6376;SDS011;3221;48.858;10.128;2022-09-06T14:36:59;4.97;;;3.30;;
6376;SDS011;3221;48.858;10.128;2022-09-06T14:39:26;6.95;;;3.60;;
6376;SDS011;3221;48.858;10.128;2022-09-06T14:41:53;4.85;;;3.03;;
6376;SDS011;3221;48.858;10.128;2022-09-06T14:44:20;8.05;;;3.65;;
6376;SDS011;3221;48.858;10.128;2022-09-06T14:46:47;8.65;;;3.53;;
6376;SDS011;3221;48.858;10.128;2022-09-06T14:49:18;3.63;;;3.05;;
6376;SDS011;3221;48.858;10.128;2022-09-06T14:51:50;6.50;;;3.20;;
6376;SDS011;3221;48.858;10.128;2022-09-06T14:54:18;8.73;;;3.28;;
6376;SDS011;3221;48.858;10.128;2022-09-06T14:56:46;7.53;;;3.17;;
6376;SDS011;3221;48.858;10.128;2022-09-06T14:59:13;4.18;;;3.10;;
6376;SDS011;3221;48.858;10.128;2022-09-06T15:01:40;7.75;;;3.08;;
6376;SDS011;3221;48.858;10.128;2022-09-06T15:04:08;6.18;;;3.15;;
6376;SDS011;3221;48.858;10.128;2022-09-06T15:06:36;5.00;;;3.28;;
6376;SDS011;3221;48.858;10.128;2022-09-06T15:09:05;10.32;;;3.17;;
6376;SDS011;3221;48.858;10.128;2022-09-06T15:11:38;5.95;;;2.88;;
6376;SDS011;3221;48.858;10.128;2022-09-06T15:14:16;5.90;;;3.00;;
6376;SDS011;3221;48.858;10.128;2022-09-06T15:16:45;4.05;;;3.08;;
6376;SDS011;3221;48.858;10.128;2022-09-06T15:19:21;4.40;;;3.00;;
6376;SDS011;3221;48.858;10.128;2022-09-06T15:21:52;5.78;;;3.13;;
6376;SDS011;3221;48.858;10.128;2022-09-06T15:24:20;4.10;;;2.88;;
6376;SDS011;3221;48.858;10.128;2022-09-06T15:26:48;4.55;;;3.28;;
6376;SDS011;3221;48.858;10.128;2022-09-06T15:29:15;5.15;;;2.78;;
6376;SDS011;3221;48.858;10.128;2022-09-06T15:31:42;5.78;;;3.45;;
6376;SDS011;3221;48.858;10.128;2022-09-06T15:34:15;5.78;;;3.17;;
6376;SDS011;3221;48.858;10.128;2022-09-06T15:36:43;4.22;;;3.08;;
6376;SDS011;3221;48.858;10.128;2022-09-06T15:39:10;4.38;;;3.45;;
6376;SDS011;3221;48.858;10.128;2022-09-06T15:41:38;6.38;;;3.13;;
6376;SDS011;3221;48.858;10.128;2022-09-06T15:44:13;3.42;;;2.67;;
6376;SDS011;3221;48.858;10.128;2022-09-06T15:49:10;5.72;;;2.95;;
6376;SDS011;3221;48.858;10.128;2022-09-06T15:51:39;3.80;;;2.90;;
6376;SDS011;3221;48.858;10.128;2022-09-06T15:54:07;5.88;;;3.38;;
6376;SDS011;3221;48.858;10.128;2022-09-06T15:56:35;6.28;;;3.05;;
6376;SDS011;3221;48.858;10.128;2022-09-06T15:59:02;5.95;;;3.42;;
6376;SDS011;3221;48.858;10.128;2022-09-06T16:01:30;6.03;;;3.40;;
6376;SDS011;3221;48.858;10.128;2022-09-06T16:03:59;4.38;;;3.20;;
6376;SDS011;3221;48.858;10.128;2022-09-06T16:06:33;8.02;;;3.08;;
6376;SDS011;3221;48.858;10.128;2022-09-06T16:09:06;6.78;;;3.20;;
6376;SDS011;3221;48.858;10.128;2022-09-06T16:11:35;5.53;;;3.20;;
6376;SDS011;3221;48.858;10.128;2022-09-06T16:14:03;4.70;;;3.00;;
6376;SDS011;3221;48.858;10.128;2022-09-06T16:16:32;6.22;;;3.08;;
6376;SDS011;3221;48.858;10.128;2022-09-06T16:19:00;3.90;;;2.75;;
6376;SDS011;3221;48.858;10.128;2022-09-06T16:21:28;6.82;;;3.30;;
6376;SDS011;3221;48.858;10.128;2022-09-06T16:24:01;4.63;;;3.13;;
6376;SDS011;3221;48.858;10.128;2022-09-06T16:26:31;3.97;;;3.03;;
6376;SDS011;3221;48.858;10.128;2022-09-06T16:29:00;5.15;;;2.92;;
6376;SDS011;3221;48.858;10.128;2022-09-06T16:31:28;4.00;;;2.60;;
6376;SDS011;3221;48.858;10.128;2022-09-06T16:33:56;7.97;;;3.35;;
6376;SDS011;3221;48.858;10.128;2022-09-06T16:36:23;5.25;;;3.03;;
6376;SDS011;3221;48.858;10.128;2022-09-06T16:38:51;3.97;;;2.90;;
6376;SDS011;3221;48.858;10.128;2022-09-06T16:41:36;6.15;;;2.58;;
6376;SDS011;3221;48.858;10.128;2022-09-06T16:44:08;2.92;;;2.60;;
6376;SDS011;3221;48.858;10.128;2022-09-06T16:46:42;4.93;;;2.80;;
6376;SDS011;3221;48.858;10.128;2022-09-06T16:49:10;6.10;;;2.90;;
6376;SDS011;3221;48.858;10.128;2022-09-06T16:51:37;5.32;;;3.00;;
6376;SDS011;3221;48.858;10.128;2022-09-06T16:54:04;6.05;;;2.95;;
6376;SDS011;3221;48.858;10.128;2022-09-06T16:56:31;6.18;;;3.15;;
6376;SDS011;3221;48.858;10.128;2022-09-06T16:59:02;4.13;;;2.80;;
6376;SDS011;3221;48.858;10.128;2022-09-06T17:01:31;6.53;;;2.80;;
6376;SDS011;3221;48.858;10.128;2022-09-06T17:03:59;6.03;;;2.90;;
6376;SDS011;3221;48.858;10.128;2022-09-06T17:06:27;5.53;;;3.50;;
6376;SDS011;3221;48.858;10.128;2022-09-06T17:08:55;7.43;;;3.35;;
6376;SDS011;3221;48.858;10.128;2022-09-06T17:11:26;8.00;;;3.55;;